Ernest A. Love Field
KPRC : rendu visible

Aérodrome :











RETROUVEZ-NOUS SUR...

 
LOGIN :

S'inscrire | Disclaimer

   EN    FR    IT 

 









Légende :    VFR   VFR Marginal   IFR   IFR Intensif   IFR Très Intensif
Visi : 
Plafond : 
>= 8 km
>= 3000ft
5 à 8 km
1000 à 3000 ft
1500m à 5 km
500 à 1000 ft
800 à 1500m
200 à 500 ft
< 800m
< 200 ft
Symboles :   Orages  Brouillard  Fortes neiges  Fortes précipitations  Vent > 20 kt






- Altitude de l'aérodrome : 5045 ft
- Code IATA : PRC


KPRC - Ernest A. Love Field

DERNIER METAR :
  • 171753Z 02005KT 10SM CLR 08/M01 A3018 RMK AO2 SLP195 T00781011 10078 20000 51019

METARs EXPIRÉS :
  • 171653Z 16005KT 10SM CLR 05/00 A3016 RMK AO2 SLP191 T00500000
  • 171553Z 10005KT 10SM FEW003 FEW025 04/00 A3014 RMK AO2 SLP185 T00390000

TAF KPRC
Valide du 17 à 18h jusqu'au 18 à 18h UTC


171733Z 1718/1818 22008G16KT P6SM FEW025 SCT250
FM171900 35008KT P6SM FEW250
FM180100 VRB05KT P6SM FEW250



MET'MAP, la Météo Aéronautique d'un coup d'oeil ! - Copyright ORBIFLY Décembre 2007 - Disclaimer

ORBIFLY MET'MAP TEAM :

Programmation & Développement : Alexandra Zaïnal
Sur une idée originale de : Baudouin d'Aumeries
Assistance à la programmation : Marc-Olivier Méhu
Soutien technique & logistique : Manuel Goepfert

Contact : metmap@orbifly.com




SOURCES & CREDITS :

   NOAA       Earth
Advisory